Deering (New), AK

19:06 AKDT le 25 juillet 2014 (GMT -0800)
Wien Memorial (PAOT) Alt. 16 ft | 66.88 °N, 162.60 °W | Change Station

Current weather conditions updated 13 minutes ago

Clear
Ciel dégagé
48 ° F
Paraît 48 ° F
N
22
Vent Variable Vent de ONO

Demain il est prévu de faire plus chaud qu’aujourd’hui.

Aujourd'hui
Haut(e) -- | Bas -- ° F
--% Risque de précip.
Hier
Haut(e) -- | Bas -- ° F
Precip. -- pouce
5:09 AM 0:42 AM
Lune descendante, 1% visible
Pression 30.04 pouce
Visibilité 9.0 Miles terrestres
Nuages Ciel dégagé
Point de rosée 39 ° F
Humidité 71%
Précipitations 0.00 pouce
Profondeur de la couche neigeuse Non disponible.
UV 3 sur 12
Pollen Non disponible.
Qualité de l'air Non disponible.
Flu Activity Non disponible.
METAR PAOT 260253Z 29019KT 9SM CLR 09/04 A3004 RMK AO2 SLP171 T00890039 58000

More Conditions Fewer Conditions

Pression 30.04 pouce
Visibilité 9.0 Miles terrestres
Nuages Ciel dégagé
Point de rosée 39 ° F
Humidité 71%
Précipitations 0.00 pouce
Profondeur de la couche neigeuse Non disponible.
UV 3 sur 12
Pollen Non disponible.
Qualité de l'air Non disponible.
Flu Activity Non disponible.
METAR PAOT 260253Z 29019KT 9SM CLR 09/04 A3004 RMK AO2 SLP171 T00890039 58000

More Conditions Fewer Conditions

10-Day Weather Forecast

Almanac

Astronomie

Jul. 25, 2014 Lever Coucher
Temps réel 05:09 AKDT 00:42 AKDT
Crépuscule civil 03:30 AKDT 02:25 AKDT
Crépuscule nautique Sun does not rise Sun does not rise
Crépuscule astronomique Sun does not rise Sun does not rise
Lune 04:50 AKDT (7/25) 23:03 AKDT (7/25)
Durée de lumière visible 22h 55m
Longueur du jour
19h 33m
Tomorrow will be 8m 8s shorter.
Lune descendante, 1% of the Moon is Illuminated
Aujourd'hui
Lune descendante
juil 26
Nouveau
août 3
Premier quartier
août 10
Pleine lune
août 17
Dernier quartier

Extrêmes aujourd'hui

State Highs State Lows

Community

WunderPhotos

Upload Photos

1,737,492 Photos téléchargées !

Nearby

Qualité de l'air

Not available.

Épaisseur de neige

Station Depth Altitude
Rocky Point 2 in 500 ft
Gobblers Knob 0 in 2030 ft
Coldfoot 0 in 1040 ft
Atigun Pass 0 in 4800 ft
Imnaviat Creek 47 in 3050 ft

Activité sismique

Ville Distance Mag. Time & Date
No recent earthquake activity has been reported nearby.
Minimum magnitude displayed is 2.5.

Températures des eaux côtières

Lieu Température
Aucun rapport de station

Stations météo à proximité

Il n'y a aucune station météorologique personnelle dans cette zone.